Data for 08/01/2010

Time Sea-Level Adjusted Pressure Absolute Pressure Temperature Relative Humidity Dew Point   
(mb) (inHg) (mb) (inHg) (C) (F) (%) (C) (F)
00:05 1017 30.03 846 24.98 16.4 61.5 74 11.8 53.2
00:10 1017 30.03 846 24.98 16.4 61.6 73 11.6 52.8
00:15 1017 30.03 846 24.98 16.3 61.3 74 11.7 53.1
00:20 1017 30.03 846 24.98 16.2 61.1 74 11.6 52.9
00:25 1017 30.03 846 24.98 16.1 61 74 11.5 52.7
00:30 1017 30.03 846 24.98 16 60.8 75 11.6 52.9
00:35 1017 30.03 846 24.98 15.8 60.5 75 11.5 52.7
00:40 1017 30.03 847 25.01 15.6 60.1 78 11.9 53.3
00:45 1017 30.03 847 25.01 15.3 59.6 79 11.7 53.1
00:50 1018 30.06 847 25.01 15.3 59.5 79 11.7 53.1
00:55 1018 30.06 847 25.01 15.2 59.3 80 11.8 53.2
01:00 1018 30.06 847 25.01 15.1 59.2 80 11.8 53.2
01:05 1018 30.06 847 25.01 15.2 59.3 81 12 53.5
01:10 1018 30.06 847 25.01 15 59.1 82 12 53.7
01:15 1018 30.06 847 25.01 14.9 58.7 83 12 53.7
01:20 1018 30.06 847 25.01 14.7 58.5 84 12.1 53.8
01:25 1018 30.06 847 25.01 14.6 58.3 84 12 53.6
01:30 1018 30.06 848 25.04 14.6 58.2 85 12 53.6
01:35 1018 30.06 848 25.04 14.5 58.1 85 12.1 53.7
01:40 1019 30.09 848 25.04 14.4 57.9 86 12.1 53.7
01:45 1019 30.09 848 25.04 14.2 57.6 86 11.9 53.5
01:50 1019 30.09 848 25.04 14.2 57.5 86 11.9 53.5
01:55 1019 30.09 848 25.04 14 57.3 86 11.8 53.2
02:00 1019 30.09 848 25.04 13.3 56 89 11.6 52.9
02:05 1019 30.09 848 25.04 13.2 55.8 88 11.2 52.2
02:10 1018 30.06 848 25.04 13.3 56 87 11.3 52.3
02:15 1018 30.06 848 25.04 13.1 55.5 88 11.2 52.2
02:20 1018 30.06 848 25.04 13.1 55.5 88 11.1 52
02:25 1018 30.06 848 25.04 13.2 55.7 88 11.2 52.1
02:30 1018 30.06 847 25.01 13.3 55.9 87 11.3 52.3
02:35 1018 30.06 847 25.01 13.4 56.2 86 11.2 52.2
02:40 1018 30.06 848 25.04 13.6 56.6 86 11.3 52.4
02:45 1018 30.06 848 25.04 13.7 56.7 86 11.4 52.5
02:50 1018 30.06 848 25.04 14 57.1 84 11.4 52.5
02:55 1018 30.06 848 25.04 14.1 57.4 85 11.7 53
03:00 1018 30.06 848 25.04 14.2 57.5 85 11.6 52.9
03:05 1018 30.06 848 25.04 14.1 57.3 85 11.7 53
03:10 1018 30.06 848 25.04 14 57.2 86 11.7 53
03:15 1018 30.06 848 25.04 14 57.1 86 11.7 53
03:20 1018 30.06 848 25.04 13.9 57.1 86 11.6 52.9
03:25 1019 30.09 848 25.04 13.9 57 86 11.5 52.7
03:30 1019 30.09 848 25.04 13.8 56.9 86 11.5 52.7
03:35 1019 30.09 848 25.04 13.5 56.4 88 11.6 52.8
03:40 1019 30.09 848 25.04 13.3 56 88 11.4 52.6
03:45 1019 30.09 848 25.04 13.3 55.9 88 11.4 52.5
03:50 1019 30.09 848 25.04 13.4 56 88 11.5 52.7
03:55 1019 30.09 848 25.04 13.4 56.1 89 11.6 52.9
04:00 1019 30.09 848 25.04 13.5 56.3 88 11.6 52.9
04:05 1019 30.09 848 25.04 13.5 56.3 87 11.4 52.5
04:10 1019 30.09 848 25.04 13.3 55.9 88 11.3 52.4
04:15 1019 30.09 848 25.04 13.1 55.6 88 11.2 52.2
04:20 1019 30.09 848 25.04 13 55.4 89 11.2 52.2
04:25 1019 30.09 848 25.04 12.9 55.2 90 11.3 52.3
04:30 1019 30.09 848 25.04 12.6 54.7 91 11.2 52.2
04:35 1019 30.09 848 25.04 12.6 54.6 91 11.2 52.1
04:40 1019 30.09 848 25.04 12.5 54.6 91 11.1 51.9
04:45 1019 30.09 848 25.04 12.3 54.1 91 10.9 51.6
04:50 1019 30.09 848 25.04 12.5 54.4 91 11 51.8
04:55 1019 30.09 848 25.04 12.7 54.8 89 10.9 51.7
05:00 1019 30.09 848 25.04 12.5 54.5 90 11 51.8
05:05 1019 30.09 848 25.04 12.6 54.7 90 11 51.8
05:10 1019 30.09 848 25.04 12.5 54.6 89 10.9 51.6
05:15 1019 30.09 848 25.04 12.5 54.5 90 10.9 51.6
05:20 1019 30.09 848 25.04 12.6 54.7 89 10.9 51.6
05:25 1019 30.09 848 25.04 12.7 54.8 89 10.9 51.7
05:30 1019 30.09 848 25.04 12.6 54.8 89 10.8 51.5
05:35 1019 30.09 848 25.04 12.6 54.6 89 10.9 51.6
05:40 1019 30.09 848 25.04 12.6 54.7 88 10.8 51.4
05:45 1019 30.09 848 25.04 12.6 54.6 88 10.7 51.3
05:50 1019 30.09 848 25.04 12.5 54.5 88 10.6 51.1
05:55 1019 30.09 848 25.04 12.3 54.2 89 10.5 51
06:00 1019 30.09 848 25.04 12.2 54 88 10.4 50.7
06:05 1019 30.09 848 25.04 11.9 53.3 90 10.2 50.4
06:10 1019 30.09 848 25.04 11.4 52.5 91 10 49.9
06:15 1019 30.09 848 25.04 11.2 52.1 92 9.9 49.9
06:20 1019 30.09 848 25.04 11.2 52.1 92 9.9 49.8
06:25 1019 30.09 848 25.04 11.2 52.1 92 10 50
06:30 1019 30.09 848 25.04 11.3 52.3 91 9.9 49.8
06:35 1019 30.09 848 25.04 11.4 52.5 91 9.9 49.9
06:40 1019 30.09 848 25.04 11.6 52.8 90 10.1 50.1
06:45 1019 30.09 848 25.04 11.7 53.1 91 10.3 50.6
06:50 1019 30.09 848 25.04 12 53.7 90 10.4 50.8
06:55 1019 30.09 848 25.04 12.3 54.1 89 10.5 50.8
07:00 1019 30.09 848 25.04 12.5 54.5 87 10.3 50.6
07:05 1019 30.09 848 25.04 12.7 54.8 86 10.4 50.7
07:10 1019 30.09 848 25.04 12.9 55.2 86 10.6 51
07:15 1019 30.09 848 25.04 13.1 55.6 85 10.6 51.1
07:20 1019 30.09 848 25.04 13.5 56.2 84 10.8 51.5
07:25 1019 30.09 848 25.04 13.8 56.8 83 10.9 51.7
07:30 1019 30.09 848 25.04 13.6 56.6 82 10.7 51.3
07:35 1019 30.09 848 25.04 13.8 56.9 81 10.7 51.2
07:40 1019 30.09 848 25.04 14.3 57.7 80 11 51.8
07:45 1019 30.09 848 25.04 14.6 58.2 79 11 51.7
07:50 1019 30.09 849 25.07 15 59 77 11.1 52
07:55 1019 30.09 849 25.07 15.4 59.7 76 11.3 52.3
08:00 1019 30.09 849 25.07 15.8 60.4 76 11.5 52.8
08:05 1019 30.09 849 25.07 15.7 60.2 75 11.2 52.2
08:10 1019 30.09 849 25.07 16.1 61 73 11.3 52.4
08:15 1019 30.09 849 25.07 16.2 61.1 75 11.7 53.1
08:20 1019 30.09 849 25.07 16 60.8 74 11.5 52.7
08:25 1019 30.09 849 25.07 16.4 61.4 72 11.4 52.5
08:30 1019 30.09 848 25.04 16.7 62.1 71 11.6 52.8
08:35 1019 30.09 848 25.04 16.7 62.1 73 12 53.6
08:40 1019 30.09 848 25.04 17 62.6 73 12.1 53.8
08:45 1019 30.09 848 25.04 17.3 63.2 70 11.9 53.5
08:50 1019 30.09 848 25.04 17.1 62.7 70 11.6 52.9
08:55 1019 30.09 848 25.04 17.4 63.3 70 12 53.5
09:00 1019 30.09 848 25.04 17.5 63.5 69 11.8 53.2
09:05 1019 30.09 848 25.04 17.8 64 70 12.3 54.2
09:10 1019 30.09 848 25.04 18.2 64.8 67 12 53.5
09:15 1019 30.09 848 25.04 18.3 65 66 11.9 53.5
09:20 1019 30.09 848 25.04 18.9 66 64 12 53.6
09:25 1019 30.09 848 25.04 19.5 67.1 64 12.6 54.7
09:30 1019 30.09 848 25.04 19.6 67.3 62 12.4 54.2
09:35 1019 30.09 848 25.04 19.4 66.8 64 12.4 54.3
09:40 1019 30.09 848 25.04 18.8 65.8 64 11.9 53.5
09:45 1019 30.09 848 25.04 19 66.2 64 12.2 54
09:50 1019 30.09 848 25.04 19.3 66.8 61 11.8 53.3
09:55 1019 30.09 848 25.04 19.9 67.8 60 12 53.7
10:00 1019 30.09 848 25.04 19.7 67.4 61 12.1 53.7
10:05 1019 30.09 848 25.04 19.2 66.5 62 11.7 53.1
10:10 1019 30.09 848 25.04 19.8 67.7 61 12.1 53.8
10:15 1019 30.09 848 25.04 20 68 59 11.7 53.1
10:20 1019 30.09 848 25.04 20.7 69.2 57 12.1 53.8
10:25 1019 30.09 848 25.04 21.1 70 55 11.9 53.5
10:30 1019 30.09 848 25.04 21.3 70.3 56 12.4 54.3
10:35 1019 30.09 848 25.04 21.6 70.8 55 12.1 53.9
10:40 1019 30.09 848 25.04 21.3 70.3 57 12.5 54.5
10:45 1019 30.09 848 25.04 21.7 71.1 57 13 55.3
10:50 1019 30.09 848 25.04 20.6 69.1 57 11.9 53.4
10:55 1019 30.09 848 25.04 21.2 70.1 57 12.4 54.3
11:00 1019 30.09 848 25.04 20.3 68.6 57 11.6 52.9
11:05 1019 30.09 848 25.04 21.1 69.9 55 11.9 53.4
11:10 1019 30.09 848 25.04 21.5 70.7 55 12.3 54.2
11:15 1019 30.09 848 25.04 22.1 71.8 55 12.7 54.8
11:20 1019 30.09 848 25.04 22.3 72.1 53 12.3 54.1
11:25 1019 30.09 848 25.04 21.6 70.8 57 12.8 55.1
11:30 1019 30.09 848 25.04 21.3 70.3 54 11.6 52.9
11:35 1019 30.09 848 25.04 22.4 72.3 53 12.4 54.3
11:40 1019 30.09 848 25.04 22.7 72.9 51 12.1 53.8
11:45 1019 30.09 848 25.04 23.3 73.9 49 12 53.6
11:50 1019 30.09 848 25.04 23.4 74 50 12.4 54.3
11:55 1018 30.06 848 25.04 23.1 73.5 52 12.7 54.9
12:00 1018 30.06 848 25.04 23.1 73.6 51 12.6 54.7
12:05 1018 30.06 848 25.04 23.2 73.7 50 12.4 54.3
12:10 1018 30.06 848 25.04 23.1 73.5 50 12.1 53.8
12:15 1018 30.06 848 25.04 23.5 74.3 48 12.1 53.8
12:20 1018 30.06 847 25.01 23 73.4 50 12.3 54.1
12:25 1018 30.06 848 25.04 22.9 73.3 51 12.5 54.4
12:30 1018 30.06 847 25.01 23.4 74.2 51 12.7 54.9
12:35 1018 30.06 847 25.01 23.5 74.4 51 13 55.4
12:40 1018 30.06 847 25.01 22.8 73.1 52 12.5 54.5
12:45 1018 30.06 847 25.01 23.8 74.8 51 13.3 56
12:50 1018 30.06 847 25.01 24.2 75.5 46 12 53.6
12:55 1018 30.06 847 25.01 23.9 75.1 46 11.6 52.9
13:00 1018 30.06 847 25.01 24.2 75.5 44 11.5 52.7
13:05 1018 30.06 847 25.01 24.8 76.7 44 11.9 53.4
13:10 1018 30.06 847 25.01 24.6 76.3 45 12.1 53.9
13:15 1018 30.06 847 25.01 24.9 76.8 44 11.9 53.5
13:20 1018 30.06 847 25.01 23.9 75.1 47 12.3 54.1
13:25 1018 30.06 847 25.01 24.3 75.7 43 11 51.7
13:30 1018 30.06 847 25.01 25.5 77.8 39 10.8 51.4
13:35 1018 30.06 847 25.01 25.7 78.3 40 11.5 52.7
13:40 1018 30.06 847 25.01 26 78.8 39 11.3 52.3
13:45 1018 30.06 847 25.01 26.2 79.2 38 11.2 52.2
13:50 1017 30.03 847 25.01 26.1 78.9 38 10.9 51.6
13:55 1017 30.03 847 25.01 25.9 78.7 40 11.5 52.8
14:00 1017 30.03 847 25.01 25.9 78.7 39 11 51.9
14:05 1017 30.03 846 24.98 26.7 80 37 10.9 51.6
14:10 1017 30.03 846 24.98 26.9 80.3 37 11.2 52.2
14:15 1017 30.03 846 24.98 26.7 80.1 37 11.2 52.2
14:20 1017 30.03 846 24.98 27.1 80.7 37 11.3 52.3
14:25 1017 30.03 846 24.98 26.6 79.9 40 12 53.7
14:30 1017 30.03 846 24.98 26.1 79 36 10.2 50.3
14:35 1017 30.03 846 24.98 26.8 80.3 36 10.8 51.4
14:40 1017 30.03 846 24.98 26.3 79.3 36 10.4 50.8
14:45 1017 30.03 846 24.98 26.6 79.8 33 9.3 48.8
14:50 1017 30.03 846 24.98 27.4 81.3 32 9.6 49.3
14:55 1017 30.03 846 24.98 27.9 82.2 32 10.1 50.1
15:00 1016 30 846 24.98 27.5 81.5 33 9.9 49.8
15:05 1016 30 846 24.98 27.3 81.2 33 9.8 49.6
15:10 1016 30 846 24.98 27.1 80.7 32 9.3 48.7
15:15 1016 30 845 24.95 27.8 82.1 31 9.4 48.9
15:20 1016 30 845 24.95 28.4 83.2 30 9.5 49.1
15:25 1016 30 845 24.95 28.1 82.5 28 8.3 46.9
15:30 1016 30 845 24.95 27.8 82 26 6.7 44
15:35 1016 30 845 24.95 27.8 82.1 25 6.5 43.7
15:40 1016 30 845 24.95 28.1 82.5 26 7.2 44.9
15:45 1016 30 845 24.95 27.7 81.9 27 7.3 45.1
15:50 1016 30 845 24.95 28.2 82.7 27 7.6 45.7
15:55 1016 30 845 24.95 28.4 83.1 30 9.3 48.8
16:00 1016 30 845 24.95 28.3 83 26 7.3 45.1
16:05 1016 30 845 24.95 28.3 82.9 27 7.7 45.8
16:10 1016 30 845 24.95 28.4 83.1 27 8 46.4
16:15 1016 30 845 24.95 29 84.3 24 7 44.7
16:20 1016 30 845 24.95 29.3 84.8 25 7.7 45.9
16:25 1016 30 845 24.95 27.9 82.2 28 7.9 46.2
16:30 1016 30 845 24.95 27.3 81.2 28 7.3 45.1
16:35 1016 30 845 24.95 27.1 80.9 31 8.6 47.5
16:40 1016 30 845 24.95 26.2 79.2 32 8.6 47.4
16:45 1016 30 845 24.95 25.8 78.4 33 8.6 47.5
16:50 1016 30 845 24.95 25.3 77.6 37 9.7 49.5
16:55 1016 30 845 24.95 24.6 76.2 43 11.2 52.2
17:00 1017 30.03 846 24.98 18.6 65.5 66 12.2 53.9
17:05 1017 30.03 846 24.98 16.7 62 64 10 50
17:10 1016 30 846 24.98 17.3 63.1 61 9.6 49.4
17:15 1016 30 845 24.95 18.3 64.9 64 11.4 52.5
17:20 1016 30 845 24.95 18.9 66 61 11.2 52.2
17:25 1016 30 845 24.95 20 67.9 61 12.3 54.1
17:30 1016 30 845 24.95 20.9 69.5 60 12.8 55.1
17:35 1016 30 845 24.95 21.6 70.8 58 13 55.5
17:40 1016 30 845 24.95 22.2 72 45 9.9 49.9
17:45 1016 30 845 24.95 22.7 72.9 48 11.3 52.4
17:50 1016 30 845 24.95 23 73.4 50 12.1 53.8
17:55 1016 30 845 24.95 23.1 73.6 41 9.3 48.7
18:00 1016 30 845 24.95 23.1 73.6 47 11.3 52.3
18:05 1016 30 845 24.95 22.5 72.6 52 12.3 54.1
18:10 1016 30 845 24.95 22 71.6 51 11.5 52.7
18:15 1016 30 845 24.95 21.9 71.5 48 10.7 51.2
18:20 1016 30 845 24.95 22.2 71.9 49 11.1 51.9
18:25 1016 30 845 24.95 22.2 72 47 10.5 51
18:30 1016 30 845 24.95 22.2 71.9 47 10.5 51
18:35 1016 30 845 24.95 22.4 72.4 47 10.7 51.3
18:40 1016 30 845 24.95 22.9 73.1 46 10.7 51.2
18:45 1015 29.97 845 24.95 22.8 73.1 48 11.3 52.4
18:50 1015 29.97 845 24.95 22.9 73.3 44 10.2 50.4
18:55 1015 29.97 845 24.95 23.3 73.9 41 9.6 49.3
19:00 1016 30 845 24.95 23.6 74.5 42 10.3 50.6
19:05 1016 30 845 24.95 23.7 74.7 43 10.5 50.9
19:10 1016 30 845 24.95 23.7 74.6 42 10.3 50.6
19:15 1016 30 845 24.95 23.3 74 44 10.4 50.7
19:20 1016 30 845 24.95 23.3 74 45 10.8 51.4
19:25 1015 29.97 845 24.95 23.3 73.9 43 10.2 50.4
19:30 1015 29.97 845 24.95 23.2 73.7 43 10.2 50.4
19:35 1015 29.97 845 24.95 23.2 73.8 43 10.3 50.5
19:40 1015 29.97 844 24.92 23.3 73.9 44 10.4 50.7
19:45 1015 29.97 845 24.95 23.2 73.7 45 10.9 51.7
19:50 1016 30 845 24.95 23 73.5 45 10.5 50.9
19:55 1016 30 845 24.95 23 73.3 45 10.4 50.8
20:00 1016 30 845 24.95 23 73.3 42 9.4 48.9
20:05 1016 30 845 24.95 22.9 73.3 44 10.2 50.4
20:10 1016 30 845 24.95 22.7 72.9 43 9.6 49.3
20:15 1016 30 845 24.95 22.6 72.7 45 10.2 50.4
20:20 1016 30 845 24.95 22.6 72.6 43 9.6 49.2
20:25 1016 30 845 24.95 22.5 72.5 45 10.2 50.3
20:30 1016 30 845 24.95 22.2 72 47 10.6 51.1
20:35 1016 30 845 24.95 22 71.6 48 10.6 51.1
20:40 1016 30 845 24.95 21.9 71.5 51 11.4 52.6
20:45 1016 30 845 24.95 21.9 71.4 54 12.3 54.2
20:50 1016 30 845 24.95 21.9 71.5 49 10.8 51.4
20:55 1016 30 845 24.95 21.7 71 50 10.9 51.6
21:00 1016 30 845 24.95 21.6 70.9 43 8.6 47.5
21:05 1016 30 845 24.95 21.7 71 45 9.4 48.9
21:10 1016 30 845 24.95 21.2 70.2 47 9.5 49.1
21:15 1016 30 845 24.95 20.9 69.7 45 8.6 47.5
21:20 1016 30 845 24.95 20.9 69.6 44 8.4 47.2
21:25 1016 30 845 24.95 20.8 69.4 44 8.2 46.8
21:30 1016 30 845 24.95 20.7 69.3 47 9.2 48.5
21:35 1016 30 845 24.95 20.5 68.9 42 7.2 45
21:40 1016 30 845 24.95 20.7 69.2 45 8.5 47.4
21:45 1016 30 845 24.95 20.5 69 44 8 46.4
21:50 1016 30 846 24.98 20.6 69.2 43 7.9 46.2
21:55 1017 30.03 846 24.98 20.3 68.5 47 8.8 47.9
22:00 1017 30.03 846 24.98 20.1 68.1 43 7.4 45.3
22:05 1017 30.03 846 24.98 20.2 68.3 43 7.2 45
22:10 1017 30.03 846 24.98 20.2 68.3 42 6.9 44.5
22:15 1016 30 846 24.98 20.5 68.8 45 8.2 46.8
22:20 1016 30 846 24.98 20.3 68.5 47 8.9 47.9
22:25 1016 30 846 24.98 19.9 67.8 50 9.2 48.6
22:30 1016 30 846 24.98 19.7 67.5 51 9.5 49
22:35 1017 30.03 846 24.98 19.9 67.8 47 8.5 47.3
22:40 1017 30.03 846 24.98 20 68.1 50 9.5 49
22:45 1017 30.03 846 24.98 19.6 67.3 51 9.4 48.8
22:50 1017 30.03 846 24.98 19.1 66.4 52 9.2 48.6
22:55 1017 30.03 846 24.98 19 66.1 52 9.1 48.4
23:00 1017 30.03 846 24.98 18.5 65.4 54 9.1 48.4
23:05 1017 30.03 846 24.98 18.6 65.5 54 9.3 48.7
23:10 1017 30.03 846 24.98 18.8 65.9 52 8.8 47.8
23:15 1017 30.03 847 25.01 18.6 65.4 55 9.4 49
23:20 1017 30.03 847 25.01 18.2 64.7 56 9.4 49
23:25 1017 30.03 847 25.01 18 64.4 54 8.6 47.5
23:30 1017 30.03 847 25.01 17.7 63.8 54 8.4 47.1
23:35 1018 30.06 847 25.01 17.7 63.8 53 8 46.4
23:40 1018 30.06 847 25.01 17.7 63.8 55 8.5 47.3
23:45 1018 30.06 847 25.01 17.2 63 59 9.1 48.4
23:50 1018 30.06 847 25.01 16.6 61.8 63 9.5 49
23:55 1018 30.06 847 25.01 16.3 61.3 64 9.5 49
24:00 1018 30.06 847 25.01 16.2 61.1 65 9.7 49.4